Time;durP1;ratioP1;P1;durP2;ratioP2;P2;SDS_P1;SDS_P2;PMS_P1;PMS_P2;Temp;Humidity;BMP_temperature;BMP_pressure;BME280_temperature;BME280_humidity;BME280_pressure;Samples;Min_cycle;Max_cycle;Signal;HPM_P1;HPM_P2
2020/12/11 00:00:44;;;;;;;13.23;7.67;;;6.00;99.90;;;;;;5070991;28;20217;-68
2020/12/11 00:03:11;;;;;;;9.37;6.83;;;6.00;99.90;;;;;;5071558;28;20207;-68
2020/12/11 00:05:37;;;;;;;12.27;7.07;;;6.00;99.90;;;;;;5070767;28;20210;-68
2020/12/11 00:08:04;;;;;;;9.70;6.50;;;6.00;99.90;;;;;;5070783;28;20647;-68
2020/12/11 00:10:32;;;;;;;8.27;5.83;;;6.10;99.90;;;;;;5070039;28;20241;-68
2020/12/11 00:12:58;;;;;;;10.10;4.77;;;6.20;99.90;;;;;;5071419;28;20271;-68
2020/12/11 00:15:25;;;;;;;10.93;5.77;;;6.20;99.90;;;;;;5071131;28;20264;-68
2020/12/11 00:17:52;;;;;;;7.40;5.30;;;6.20;99.90;;;;;;5071136;28;20210;-67
2020/12/11 00:20:18;;;;;;;7.97;5.60;;;6.20;99.90;;;;;;5071510;28;20214;-68
2020/12/11 00:22:45;;;;;;;9.83;6.03;;;6.20;99.90;;;;;;5070242;28;20202;-68
2020/12/11 00:25:11;;;;;;;9.27;6.03;;;6.30;99.90;;;;;;5070964;28;20218;-68
2020/12/11 00:27:38;;;;;;;11.53;6.10;;;6.30;99.90;;;;;;5070135;28;20216;-68
2020/12/11 00:30:05;;;;;;;13.90;6.50;;;6.30;99.90;;;;;;5070731;28;20202;-68
2020/12/11 00:32:35;;;;;;;7.30;6.07;;;6.30;99.90;;;;;;5070373;28;20202;-68
2020/12/11 00:35:01;;;;;;;12.73;7.60;;;6.30;99.90;;;;;;5070462;28;20205;-68
2020/12/11 00:37:28;;;;;;;8.73;6.43;;;6.30;99.90;;;;;;5070278;28;20693;-68
2020/12/11 00:39:54;;;;;;;10.53;6.03;;;6.20;99.90;;;;;;5070561;28;20291;-67
2020/12/11 00:42:21;;;;;;;12.00;6.50;;;6.30;99.90;;;;;;5071273;28;20559;-68
2020/12/11 00:44:47;;;;;;;12.07;6.63;;;6.20;99.90;;;;;;5070148;28;20210;-68
2020/12/11 00:47:14;;;;;;;13.13;7.40;;;6.20;99.90;;;;;;5070636;28;20206;-68
2020/12/11 00:49:41;;;;;;;13.10;7.63;;;6.20;99.90;;;;;;5069915;28;20233;-68
2020/12/11 00:52:08;;;;;;;13.10;6.57;;;6.20;99.90;;;;;;5070520;28;20199;-68
2020/12/11 00:54:34;;;;;;;9.50;7.03;;;6.20;99.90;;;;;;5070069;28;20670;-68
2020/12/11 00:57:01;;;;;;;12.90;7.43;;;6.10;99.90;;;;;;5070466;28;20217;-67
2020/12/11 00:59:27;;;;;;;7.73;6.83;;;6.20;99.90;;;;;;5070155;28;20199;-68
2020/12/11 01:01:53;;;;;;;11.30;6.43;;;6.10;99.90;;;;;;5070406;28;20555;-68
2020/12/11 01:04:20;;;;;;;10.00;6.93;;;6.20;99.90;;;;;;5070579;28;20267;-70
2020/12/11 01:06:47;;;;;;;10.70;7.27;;;6.20;99.90;;;;;;5070156;28;20241;-70
2020/12/11 01:09:14;;;;;;;7.27;5.60;;;6.20;99.90;;;;;;5069988;28;20280;-70
2020/12/11 01:11:40;;;;;;;8.40;6.03;;;6.20;99.90;;;;;;5070231;28;20206;-70
2020/12/11 01:14:07;;;;;;;8.83;5.47;;;6.10;99.90;;;;;;5070341;28;20263;-68
2020/12/11 01:16:33;;;;;;;8.60;5.33;;;6.10;99.90;;;;;;5069703;28;20659;-70
2020/12/11 01:18:59;;;;;;;11.73;5.40;;;6.10;99.90;;;;;;5069750;28;20217;-71
2020/12/11 01:21:26;;;;;;;11.43;5.97;;;6.20;99.90;;;;;;5069962;28;20259;-69
2020/12/11 01:23:56;;;;;;;6.73;4.87;;;6.20;99.90;;;;;;5073581;28;20206;-68
2020/12/11 01:26:23;;;;;;;10.10;5.70;;;6.20;99.90;;;;;;5074617;28;20574;-68
2020/12/11 01:28:49;;;;;;;11.73;5.37;;;6.10;99.90;;;;;;5074075;28;20659;-68
2020/12/11 01:31:18;;;;;;;10.33;4.50;;;6.20;99.90;;;;;;5074248;28;20202;-71
2020/12/11 01:33:47;;;;;;;12.30;5.37;;;6.20;99.90;;;;;;5073627;28;20232;-71
2020/12/11 01:36:13;;;;;;;8.17;4.77;;;6.20;99.90;;;;;;5074310;28;20206;-69
2020/12/11 01:38:40;;;;;;;7.63;4.57;;;6.20;99.90;;;;;;5073649;28;20303;-68
2020/12/11 01:41:07;;;;;;;6.17;4.03;;;6.20;99.90;;;;;;5074261;28;20206;-68
2020/12/11 01:43:33;;;;;;;11.27;3.80;;;6.30;99.90;;;;;;5073597;28;20275;-68
2020/12/11 01:46:00;;;;;;;7.67;3.53;;;6.30;99.90;;;;;;5073847;28;20689;-68
2020/12/11 01:48:27;;;;;;;6.07;3.53;;;6.30;99.90;;;;;;5072819;28;20226;-68
2020/12/11 01:50:53;;;;;;;6.10;3.57;;;6.30;99.90;;;;;;5074374;28;20238;-68
2020/12/11 01:53:22;;;;;;;5.80;3.07;;;6.30;99.90;;;;;;5074289;28;20249;-68
2020/12/11 01:55:50;;;;;;;9.10;4.10;;;6.30;99.90;;;;;;5073662;28;20776;-68
2020/12/11 01:58:23;;;;;;;4.73;3.33;;;6.30;99.90;;;;;;5073888;28;20333;-67
2020/12/11 02:00:50;;;;;;;5.67;2.60;;;6.30;99.90;;;;;;5073404;28;20206;-68
2020/12/11 02:03:18;;;;;;;6.43;2.87;;;6.20;99.90;;;;;;5073652;28;20624;-68
2020/12/11 02:05:44;;;;;;;4.83;2.40;;;6.20;99.90;;;;;;5072855;28;20249;-69
2020/12/11 02:08:13;;;;;;;8.83;3.27;;;6.30;99.90;;;;;;5073700;28;20234;-68
2020/12/11 02:10:39;;;;;;;5.20;2.73;;;6.30;99.90;;;;;;5073004;28;20206;-68
2020/12/11 02:13:07;;;;;;;11.67;3.30;;;6.30;99.90;;;;;;5073551;28;20202;-68
2020/12/11 02:15:35;;;;;;;5.73;2.40;;;6.30;99.90;;;;;;5072181;28;20225;-68
2020/12/11 02:18:01;;;;;;;3.73;2.10;;;6.30;99.90;;;;;;5072356;28;20210;-68
2020/12/11 02:20:28;;;;;;;8.67;3.23;;;6.20;99.90;;;;;;5071976;28;20206;-68
2020/12/11 02:22:55;;;;;;;6.77;2.07;;;6.30;99.90;;;;;;5071704;28;20229;-68
2020/12/11 02:25:22;;;;;;;9.13;2.67;;;6.30;99.90;;;;;;5072367;28;20238;-68
2020/12/11 02:27:48;;;;;;;7.00;2.43;;;6.40;99.90;;;;;;5071247;28;20206;-68
2020/12/11 02:30:15;;;;;;;10.73;3.00;;;6.40;99.90;;;;;;5071894;28;20259;-68
2020/12/11 02:32:42;;;;;;;9.40;2.53;;;6.40;99.90;;;;;;5071589;28;20233;-69
2020/12/11 02:35:09;;;;;;;5.23;2.73;;;6.30;99.90;;;;;;5071227;28;20225;-67
2020/12/11 02:37:37;;;;;;;6.80;2.17;;;6.40;99.90;;;;;;5071433;28;20673;-68
2020/12/11 02:40:05;;;;;;;6.47;2.53;;;6.40;99.90;;;;;;5071801;28;20210;-68
2020/12/11 02:42:31;;;;;;;4.33;2.00;;;6.30;99.90;;;;;;5071513;28;20237;-68
2020/12/11 02:44:57;;;;;;;4.00;2.20;;;6.40;99.90;;;;;;5071282;28;21062;-68
2020/12/11 02:47:25;;;;;;;4.73;1.63;;;6.40;99.90;;;;;;5071561;28;20232;-68
2020/12/11 02:49:51;;;;;;;5.40;2.70;;;6.40;99.90;;;;;;5072108;28;20233;-67
2020/12/11 02:52:18;;;;;;;6.43;1.87;;;6.40;99.90;;;;;;5071587;28;20241;-68
2020/12/11 02:54:45;;;;;;;5.77;1.50;;;6.60;99.90;;;;;;5071389;28;20206;-68
2020/12/11 02:57:12;;;;;;;6.57;1.97;;;6.60;99.90;;;;;;5071105;28;20739;-68
2020/12/11 02:59:38;;;;;;;4.53;2.53;;;6.60;99.90;;;;;;5071359;28;20210;-68
2020/12/11 03:02:05;;;;;;;7.13;1.87;;;6.70;99.90;;;;;;5071041;28;20210;-69
2020/12/11 03:04:31;;;;;;;2.33;1.30;;;6.70;99.90;;;;;;5071363;28;20248;-69
2020/12/11 03:06:58;;;;;;;4.07;2.20;;;6.80;99.90;;;;;;5071461;28;20299;-69
2020/12/11 03:09:24;;;;;;;8.90;2.30;;;6.80;99.90;;;;;;5071212;28;20710;-69
2020/12/11 03:11:50;;;;;;;7.80;2.67;;;6.90;99.90;;;;;;5071572;28;20233;-68
2020/12/11 03:14:18;;;;;;;4.13;1.53;;;7.00;99.90;;;;;;5070937;28;20666;-69
2020/12/11 03:16:44;;;;;;;7.30;1.97;;;7.00;99.90;;;;;;5049425;28;634297;-69
2020/12/11 03:19:11;;;;;;;3.83;2.10;;;7.10;99.90;;;;;;5071881;28;20648;-68
2020/12/11 03:21:37;;;;;;;7.73;1.83;;;7.00;99.90;;;;;;5071734;28;20210;-68
2020/12/11 03:24:04;;;;;;;5.23;1.93;;;7.10;99.90;;;;;;5071875;28;20217;-70
2020/12/11 03:26:30;;;;;;;5.57;1.10;;;7.00;99.90;;;;;;5071577;28;20283;-68
2020/12/11 03:28:56;;;;;;;4.17;1.27;;;6.80;99.90;;;;;;5069206;28;20272;-70
2020/12/11 03:31:24;;;;;;;3.03;1.33;;;6.80;99.90;;;;;;5082442;28;20240;-68
2020/12/11 03:33:50;;;;;;;2.63;1.20;;;6.70;99.90;;;;;;5092302;28;20205;-68
2020/12/11 03:36:20;;;;;;;4.43;2.30;;;6.80;99.90;;;;;;5092272;28;20205;-68
2020/12/11 03:38:48;;;;;;;4.33;1.20;;;6.80;99.90;;;;;;5091627;28;20278;-71
2020/12/11 03:41:15;;;;;;;4.23;1.50;;;6.80;99.90;;;;;;5091817;28;21062;-67
2020/12/11 03:43:42;;;;;;;3.83;1.30;;;6.80;99.90;;;;;;5091706;28;20255;-67
2020/12/11 03:46:09;;;;;;;5.40;1.47;;;6.80;99.90;;;;;;5091127;28;20205;-67
2020/12/11 03:48:36;;;;;;;9.33;2.13;;;6.80;99.90;;;;;;5091225;28;20233;-67
2020/12/11 03:51:02;;;;;;;3.30;1.30;;;6.80;99.90;;;;;;5092020;28;20653;-67
2020/12/11 03:53:29;;;;;;;2.30;1.40;;;6.80;99.90;;;;;;5091089;28;20209;-68
2020/12/11 03:55:57;;;;;;;6.67;1.70;;;6.80;99.90;;;;;;5092025;28;20302;-67
2020/12/11 03:58:24;;;;;;;4.30;1.37;;;6.80;99.90;;;;;;5091556;28;20266;-67
2020/12/11 04:00:50;;;;;;;3.80;1.10;;;6.90;99.90;;;;;;5091995;28;20237;-67
2020/12/11 04:03:17;;;;;;;5.20;1.57;;;6.90;99.90;;;;;;5091792;28;20318;-68
2020/12/11 04:05:44;;;;;;;3.80;1.37;;;6.90;99.90;;;;;;5090830;28;20209;-68
2020/12/11 04:08:11;;;;;;;3.27;1.37;;;7.00;99.90;;;;;;5091340;28;20206;-68
2020/12/11 04:10:37;;;;;;;4.40;1.30;;;7.00;99.90;;;;;;5090725;28;20676;-68
2020/12/11 04:13:03;;;;;;;4.63;1.60;;;6.90;99.90;;;;;;5091331;28;20677;-68
2020/12/11 04:15:30;;;;;;;7.87;1.53;;;7.00;99.90;;;;;;5090623;28;20259;-67
2020/12/11 04:17:56;;;;;;;4.60;1.50;;;7.00;99.90;;;;;;5091569;28;20251;-68
2020/12/11 04:20:23;;;;;;;3.17;1.10;;;7.00;99.90;;;;;;5091731;28;20221;-67
2020/12/11 04:22:50;;;;;;;9.87;2.10;;;7.00;99.90;;;;;;5090812;28;20563;-68
2020/12/11 04:25:16;;;;;;;4.70;1.77;;;7.00;99.90;;;;;;5091441;28;20205;-68
2020/12/11 04:27:43;;;;;;;5.70;2.27;;;7.10;99.90;;;;;;5090247;28;20245;-68
2020/12/11 04:30:09;;;;;;;4.47;1.70;;;7.10;99.90;;;;;;5091111;28;20233;-67
2020/12/11 04:32:36;;;;;;;5.53;2.43;;;7.10;99.90;;;;;;5090651;28;20326;-71
2020/12/11 04:35:02;;;;;;;2.47;1.40;;;7.20;99.90;;;;;;5090707;28;20707;-68
2020/12/11 04:37:29;;;;;;;4.00;1.37;;;7.20;99.90;;;;;;5090342;28;20629;-68
2020/12/11 04:39:56;;;;;;;7.07;1.80;;;7.30;99.90;;;;;;5090817;28;20205;-68
2020/12/11 04:42:23;;;;;;;3.10;2.23;;;7.30;99.90;;;;;;5091078;28;20668;-69
2020/12/11 04:44:51;;;;;;;6.57;1.57;;;7.30;99.90;;;;;;5090791;28;20236;-70
2020/12/11 04:47:20;;;;;;;4.67;1.33;;;7.30;99.90;;;;;;5090826;28;20231;-69
2020/12/11 04:49:48;;;;;;;5.93;1.57;;;7.30;99.90;;;;;;5090025;28;20225;-68
2020/12/11 04:52:19;;;;;;;6.93;1.87;;;7.40;99.90;;;;;;5091052;28;20241;-68
2020/12/11 04:54:48;;;;;;;6.77;2.03;;;7.50;99.90;;;;;;5090297;28;20213;-70
2020/12/11 04:57:23;;;;;;;4.43;1.23;;;7.50;99.90;;;;;;5090545;28;20560;-69
2020/12/11 04:59:51;;;;;;;7.67;1.00;;;7.50;99.90;;;;;;5090656;28;20237;-69
2020/12/11 05:02:18;;;;;;;3.13;1.50;;;7.60;99.90;;;;;;5090783;28;20660;-69
2020/12/11 05:04:44;;;;;;;6.03;2.00;;;7.60;99.90;;;;;;5090148;28;20559;-68
2020/12/11 05:07:11;;;;;;;6.60;1.10;;;7.60;99.90;;;;;;5090708;28;20237;-69
2020/12/11 05:09:37;;;;;;;6.03;1.30;;;7.60;99.90;;;;;;5089997;28;20239;-69
2020/12/11 05:12:13;;;;;;;6.13;1.30;;;7.60;99.90;;;;;;5090280;28;20229;-68
2020/12/11 05:14:41;;;;;;;6.07;1.30;;;7.60;99.90;;;;;;5089765;28;20842;-69
2020/12/11 05:17:08;;;;;;;4.70;1.30;;;7.70;99.90;;;;;;5090498;28;20252;-68
2020/12/11 05:19:50;;;;;;;4.77;1.83;;;7.70;99.90;;;;;;5090035;28;20708;-69
2020/12/11 05:22:16;;;;;;;3.30;1.27;;;7.70;99.90;;;;;;5090437;28;20236;-70
2020/12/11 05:24:44;;;;;;;6.33;1.47;;;7.70;99.90;;;;;;5090245;28;20645;-70
2020/12/11 05:27:31;;;;;;;7.03;1.17;;;7.80;99.90;;;;;;5089801;28;20684;-70
2020/12/11 05:29:59;;;;;;;3.17;1.23;;;7.80;99.90;;;;;;5090418;28;20278;-67
2020/12/11 05:32:37;;;;;;;6.57;1.97;;;7.80;99.90;;;;;;5090174;28;20254;-68
2020/12/11 05:35:04;;;;;;;5.47;1.07;;;7.80;99.90;;;;;;5090289;28;20209;-68
2020/12/11 05:37:31;;;;;;;5.37;1.43;;;7.80;99.90;;;;;;5089859;28;20201;-68
2020/12/11 05:39:57;;;;;;;3.47;1.03;;;7.80;99.90;;;;;;5089939;28;20205;-68
2020/12/11 05:42:24;;;;;;;4.83;1.70;;;7.80;99.90;;;;;;5090316;28;20561;-69
2020/12/11 05:44:51;;;;;;;5.40;1.73;;;7.80;99.90;;;;;;5090511;28;20274;-68
2020/12/11 08:21:33;;;;;;;4.47;2.63;;;8.90;99.90;;;;;;5811153;22;20203;31
2020/12/11 08:24:01;;;;;;;5.60;3.90;;;8.90;99.90;;;;;;4988211;28;20213;-81
2020/12/11 08:26:36;;;;;;;10.70;4.27;;;9.00;99.90;;;;;;4990715;28;20660;-80
2020/12/11 08:29:04;;;;;;;6.77;4.57;;;9.10;99.90;;;;;;4978232;28;20666;-83
2020/12/11 08:31:38;;;;;;;9.57;5.83;;;9.30;99.90;;;;;;4991773;28;20209;-81
2020/12/11 08:34:07;;;;;;;4.73;4.10;;;9.50;99.90;;;;;;4991973;28;20267;-82
2020/12/11 08:36:34;;;;;;;6.23;4.80;;;9.80;99.90;;;;;;4991094;28;20217;-82
2020/12/11 08:39:25;;;;;;;7.87;4.90;;;10.30;99.90;;;;;;4985347;28;20691;-82
2020/12/11 08:42:16;;;;;;;6.57;3.87;;;10.00;99.90;;;;;;4991514;28;20204;-80
2020/12/11 08:50:38;;;;;;;3.83;2.80;;;9.80;99.90;;;;;;4954270;28;20229;-80
2020/12/11 08:53:07;;;;;;;4.47;2.03;;;9.80;99.90;;;;;;4990022;28;20996;-83
2020/12/11 08:55:35;;;;;;;3.50;2.80;;;10.00;99.90;;;;;;4991065;28;20205;-80
2020/12/11 08:58:01;;;;;;;8.07;2.97;;;9.90;99.90;;;;;;4990794;28;20236;-82
2020/12/11 09:00:28;;;;;;;3.40;2.27;;;10.90;99.90;;;;;;4990202;28;20213;-81
2020/12/11 09:02:54;;;;;;;3.63;2.50;;;12.70;99.90;;;;;;4989829;28;20217;-83
2020/12/11 09:05:24;;;;;;;5.57;2.77;;;11.30;99.90;;;;;;4990243;28;20205;-82
2020/12/11 09:07:52;;;;;;;3.93;3.37;;;10.70;99.90;;;;;;4990050;28;20582;-81
2020/12/11 09:10:19;;;;;;;3.77;2.93;;;10.40;99.90;;;;;;4988824;28;20727;-82
2020/12/11 09:12:48;;;;;;;4.37;3.00;;;10.40;99.90;;;;;;4989177;28;20212;-81
2020/12/11 09:15:15;;;;;;;5.90;3.53;;;10.40;99.90;;;;;;4988218;28;20219;-80
2020/12/11 09:17:41;;;;;;;6.20;3.50;;;10.50;99.90;;;;;;4993689;28;20209;-82
2020/12/11 09:20:08;;;;;;;5.27;3.50;;;10.40;99.90;;;;;;4990739;28;20267;-83
2020/12/11 09:22:35;;;;;;;7.47;3.50;;;10.40;99.90;;;;;;4989966;28;20263;-82
2020/12/11 09:25:02;;;;;;;4.60;4.03;;;10.40;99.90;;;;;;4988928;28;20205;-81
2020/12/11 09:27:28;;;;;;;6.40;5.70;;;11.40;99.90;;;;;;4990829;28;20271;-79
2020/12/11 09:30:04;;;;;;;6.57;5.20;;;11.40;99.90;;;;;;4985446;28;20283;-79
2020/12/11 09:32:38;;;;;;;6.13;4.67;;;11.40;99.90;;;;;;4989890;28;20212;-80
2020/12/11 09:35:05;;;;;;;8.80;3.97;;;12.20;99.90;;;;;;4989461;28;20220;-81
2020/12/11 09:37:31;;;;;;;6.60;3.80;;;12.60;99.90;;;;;;4990874;28;20232;-82
2020/12/11 09:39:58;;;;;;;8.70;4.47;;;12.90;99.90;;;;;;4990835;28;20259;-81
2020/12/11 09:42:46;;;;;;;4.13;3.63;;;14.20;99.90;;;;;;4990742;28;20201;-81
2020/12/11 09:45:22;;;;;;;4.20;3.73;;;15.90;99.90;;;;;;4993196;28;20554;-80
2020/12/11 09:48:03;;;;;;;7.20;3.73;;;14.20;99.90;;;;;;4992892;28;20215;-80
2020/12/11 09:50:41;;;;;;;5.63;2.93;;;16.00;99.90;;;;;;4992756;28;20315;-80
2020/12/11 09:55:51;;;;;;;5.38;3.22;;;16.40;99.90;;;;;;4959168;28;20217;-76
2020/12/11 09:58:17;;;;;;;4.72;2.22;;;15.40;99.90;;;;;;4993024;28;20263;-76
2020/12/11 10:00:47;;;;;;;5.60;2.97;;;14.40;99.90;;;;;;4993058;28;20561;-75
2020/12/11 10:03:16;;;;;;;2.90;2.35;;;14.40;99.90;;;;;;4988611;28;20216;-78
2020/12/11 10:05:42;;;;;;;5.30;2.35;;;16.10;99.90;;;;;;4991266;28;20201;-76
2020/12/11 10:08:09;;;;;;;4.13;2.75;;;15.50;99.90;;;;;;4990888;28;20205;-76
2020/12/11 10:10:35;;;;;;;3.05;2.75;;;15.60;99.90;;;;;;4994072;28;20294;-77
2020/12/11 10:13:04;;;;;;;4.97;2.70;;;15.20;99.90;;;;;;4992953;28;20263;-76
2020/12/11 10:15:31;;;;;;;2.83;2.35;;;14.30;99.90;;;;;;4994196;28;20201;-77
2020/12/11 10:18:02;;;;;;;4.43;3.17;;;15.30;99.90;;;;;;4992644;28;20702;-79
2020/12/11 10:20:28;;;;;;;5.00;2.80;;;15.00;99.90;;;;;;4994083;28;20216;-77
2020/12/11 10:22:55;;;;;;;8.82;2.58;;;15.10;99.90;;;;;;4993985;28;20267;-76
2020/12/11 10:25:22;;;;;;;6.15;2.92;;;15.00;99.90;;;;;;4986638;28;20260;-76
2020/12/11 10:27:49;;;;;;;5.22;3.08;;;14.90;99.90;;;;;;4993170;28;20213;-76
2020/12/11 10:30:15;;;;;;;4.35;2.38;;;17.20;99.90;;;;;;4991941;28;20667;-75
2020/12/11 10:32:42;;;;;;;4.40;3.10;;;18.90;99.90;;;;;;4993114;28;20213;-75
2020/12/11 10:35:09;;;;;;;3.05;2.30;;;18.80;99.90;;;;;;4991555;28;20232;-76
2020/12/11 10:37:36;;;;;;;5.65;3.15;;;19.70;99.90;;;;;;4992498;28;20279;-76
2020/12/11 10:40:04;;;;;;;6.10;3.22;;;21.00;99.90;;;;;;4991875;28;20255;-76
2020/12/11 10:42:32;;;;;;;6.13;2.15;;;18.80;99.90;;;;;;4993067;28;20256;-76
2020/12/11 10:44:58;;;;;;;6.28;2.03;;;16.30;99.90;;;;;;4987063;28;20236;-76
2020/12/11 10:47:25;;;;;;;6.20;2.03;;;15.10;99.90;;;;;;4990587;28;20277;-76
2020/12/11 10:49:51;;;;;;;6.53;2.50;;;14.60;99.90;;;;;;4991245;28;20236;-76
2020/12/11 10:52:19;;;;;;;6.28;1.80;;;14.80;99.90;;;;;;4992563;28;20232;-75
2020/12/11 10:54:46;;;;;;;4.55;1.85;;;15.10;99.90;;;;;;4991963;28;20279;-75
2020/12/11 10:57:13;;;;;;;8.82;2.70;;;15.50;99.90;;;;;;4986063;28;20621;-78
2020/12/11 10:59:39;;;;;;;6.43;1.95;;;15.40;99.90;;;;;;4991779;28;20201;-79
2020/12/11 11:02:06;;;;;;;5.30;2.00;;;15.30;99.90;;;;;;4992586;28;20209;-79
2020/12/11 11:04:33;;;;;;;5.22;1.77;;;15.70;99.90;;;;;;4993465;28;20209;-79
2020/12/11 11:07:01;;;;;;;5.25;1.75;;;16.20;99.90;;;;;;4992201;28;20212;-80
2020/12/11 11:09:35;;;;;;;5.65;1.83;;;16.50;99.90;;;;;;4992303;28;20260;-81
2020/12/11 11:12:08;;;;;;;3.95;2.42;;;16.50;99.90;;;;;;4992470;28;20699;-78
2020/12/11 11:14:59;;;;;;;7.25;2.17;;;16.50;99.90;;;;;;4989490;28;20228;-80
2020/12/11 11:20:22;;;;;;;5.10;1.75;;;15.80;99.90;;;;;;4985067;28;20300;-75
2020/12/11 11:22:55;;;;;;;6.55;2.45;;;15.80;99.90;;;;;;4992367;28;20244;-75
2020/12/11 11:27:59;;;;;;;2.92;1.10;;;15.40;99.90;;;;;;4990360;28;20216;-75
2020/12/11 11:30:27;;;;;;;5.03;2.17;;;15.30;99.90;;;;;;4990324;28;20232;-76
2020/12/11 11:32:53;;;;;;;4.68;1.88;;;15.10;99.90;;;;;;4992001;28;20320;-75
2020/12/11 11:35:20;;;;;;;4.63;1.70;;;14.80;99.90;;;;;;4988957;28;20205;-74
2020/12/11 11:37:47;;;;;;;5.28;1.85;;;14.80;99.90;;;;;;4991539;28;20255;-75
2020/12/11 11:40:14;;;;;;;9.20;3.38;;;14.70;99.90;;;;;;4991604;28;20284;-75
2020/12/11 11:42:42;;;;;;;11.45;2.25;;;14.80;99.90;;;;;;4987994;28;20209;-75
2020/12/11 11:45:09;;;;;;;5.57;1.85;;;14.80;99.90;;;;;;4991626;28;20692;-76
2020/12/11 11:47:38;;;;;;;10.18;1.83;;;14.80;99.90;;;;;;4991093;28;20212;-75
2020/12/11 11:50:24;;;;;;;6.57;1.80;;;14.70;99.90;;;;;;4990944;28;20241;-75
2020/12/11 11:52:57;;;;;;;6.47;2.60;;;14.70;99.90;;;;;;4991108;28;20197;-75
2020/12/11 11:55:23;;;;;;;4.95;1.58;;;14.90;99.90;;;;;;4992224;28;20235;-75
2020/12/11 11:57:51;;;;;;;4.50;1.70;;;15.10;99.90;;;;;;4992242;28;20201;-75
2020/12/11 12:00:17;;;;;;;6.38;2.05;;;15.40;99.90;;;;;;4991376;28;20236;-75
2020/12/11 12:02:44;;;;;;;9.23;2.28;;;15.30;99.90;;;;;;4991749;28;20739;-77
2020/12/11 12:05:11;;;;;;;7.43;2.72;;;15.30;99.90;;;;;;4991708;28;20636;-74
2020/12/11 12:07:37;;;;;;;6.60;2.38;;;14.90;99.90;;;;;;4990818;28;20205;-74
2020/12/11 12:10:04;;;;;;;6.88;1.83;;;14.50;99.90;;;;;;4990902;28;20233;-75
2020/12/11 12:12:34;;;;;;;5.18;2.22;;;14.30;99.90;;;;;;4992103;28;20624;-75
2020/12/11 12:15:02;;;;;;;8.60;2.53;;;14.20;99.90;;;;;;4991588;28;20213;-75
2020/12/11 12:17:32;;;;;;;10.77;3.67;;;14.10;99.90;;;;;;4991733;28;20216;-77
2020/12/11 12:20:03;;;;;;;5.78;2.72;;;14.00;99.90;;;;;;4991148;28;20243;-74
2020/12/11 12:28:21;;;;;;;3.35;2.13;;;13.70;99.90;;;;;;4991466;28;20207;-75
2020/12/11 12:30:49;;;;;;;8.88;3.45;;;13.80;99.90;;;;;;4982633;28;20229;-74
2020/12/11 12:39:12;;;;;;;13.23;3.20;;;13.70;99.90;;;;;;4991213;28;20215;-75
2020/12/11 12:44:23;;;;;;;8.02;3.80;;;13.60;99.90;;;;;;4991362;28;20212;-75
2020/12/11 12:46:50;;;;;;;11.60;3.10;;;13.50;99.90;;;;;;4991387;28;20245;-75
2020/12/11 12:49:16;;;;;;;7.18;2.38;;;13.40;99.90;;;;;;4990970;28;20239;-76
2020/12/11 12:51:43;;;;;;;8.30;3.17;;;13.40;99.90;;;;;;4990605;28;20201;-75
2020/12/11 12:54:09;;;;;;;6.43;2.00;;;13.40;99.90;;;;;;4991177;28;20205;-79
2020/12/11 12:56:44;;;;;;;6.72;2.22;;;13.30;99.90;;;;;;4990623;28;20639;-75
2020/12/11 12:59:14;;;;;;;6.50;2.10;;;13.20;99.90;;;;;;4989870;28;20226;-75
2020/12/11 13:01:56;;;;;;;4.28;1.42;;;13.10;99.90;;;;;;4990077;28;20263;-76
2020/12/11 13:04:33;;;;;;;5.85;1.50;;;13.10;99.90;;;;;;4990006;28;20713;-75
2020/12/11 13:07:03;;;;;;;8.32;2.95;;;13.00;99.90;;;;;;4989429;28;20262;-75
2020/12/11 13:09:30;;;;;;;4.32;2.17;;;13.00;99.90;;;;;;4990570;28;20620;-75
2020/12/11 13:11:56;;;;;;;5.95;2.10;;;13.00;99.90;;;;;;4985633;28;20217;-75
2020/12/11 13:14:22;;;;;;;3.55;1.80;;;12.90;99.90;;;;;;4986026;28;20263;-75
2020/12/11 13:16:49;;;;;;;5.25;1.98;;;12.90;99.90;;;;;;4991305;28;20204;-75
2020/12/11 13:19:17;;;;;;;6.15;2.17;;;12.90;99.90;;;;;;4993806;28;20677;-75
2020/12/11 13:21:54;;;;;;;4.38;2.33;;;12.90;99.90;;;;;;4995142;28;20214;-75
2020/12/11 13:27:08;;;;;;;5.70;2.05;;;13.00;99.90;;;;;;4983725;28;20224;-81
2020/12/11 13:29:34;;;;;;;5.70;2.13;;;12.90;99.90;;;;;;4978588;28;20347;-79
2020/12/11 13:32:01;;;;;;;4.45;1.20;;;12.90;99.90;;;;;;4994953;28;20208;-80
2020/12/11 13:34:28;;;;;;;4.15;1.23;;;13.00;99.90;;;;;;4995050;28;20209;-79
2020/12/11 13:36:56;;;;;;;1.98;0.70;;;13.00;99.90;;;;;;4988965;28;20271;-79
2020/12/11 13:39:22;;;;;;;1.45;0.80;;;13.10;99.90;;;;;;4986288;28;20205;-79
2020/12/11 13:41:49;;;;;;;2.35;0.88;;;13.50;99.90;;;;;;4994336;28;20216;-79
2020/12/11 13:44:15;;;;;;;4.47;1.15;;;13.60;99.90;;;;;;4994409;28;20205;-78
2020/12/11 13:46:43;;;;;;;10.40;1.77;;;13.60;99.90;;;;;;4991130;28;20256;-78
2020/12/11 13:49:10;;;;;;;1.05;0.85;;;13.50;99.90;;;;;;4994352;28;20283;-78
2020/12/11 13:51:36;;;;;;;2.50;1.23;;;13.50;99.90;;;;;;4990333;28;20208;-78
2020/12/11 13:54:04;;;;;;;3.05;1.20;;;13.50;99.90;;;;;;4992829;28;20677;-79
2020/12/11 13:56:30;;;;;;;4.20;1.40;;;13.50;99.90;;;;;;4993434;28;20256;-79
2020/12/11 13:58:57;;;;;;;2.63;1.38;;;13.50;99.90;;;;;;4992817;28;20200;-78
2020/12/11 14:01:23;;;;;;;3.22;1.38;;;13.40;99.90;;;;;;4991831;28;20679;-78
2020/12/11 14:03:50;;;;;;;5.10;1.13;;;13.70;99.90;;;;;;4990741;28;20212;-78
2020/12/11 14:06:17;;;;;;;3.80;1.60;;;14.10;99.90;;;;;;4992464;28;20566;-82
2020/12/11 14:08:44;;;;;;;2.17;0.90;;;14.00;99.90;;;;;;4994406;28;20213;-81
2020/12/11 14:11:11;;;;;;;6.05;1.63;;;13.80;99.90;;;;;;4993977;28;20352;-79
2020/12/11 14:13:38;;;;;;;4.72;1.35;;;13.80;99.90;;;;;;4994494;28;20209;-81
2020/12/11 14:16:06;;;;;;;2.90;1.35;;;13.90;99.90;;;;;;4985314;28;20688;-81
2020/12/11 14:18:37;;;;;;;3.47;1.17;;;13.90;99.90;;;;;;4994477;28;20205;-80
2020/12/11 14:21:22;;;;;;;3.38;1.10;;;13.60;99.90;;;;;;4993203;28;20208;-80
2020/12/11 14:23:49;;;;;;;2.13;0.95;;;13.40;99.90;;;;;;4990984;28;20255;-79
2020/12/11 14:26:19;;;;;;;3.30;1.05;;;13.20;99.90;;;;;;4992026;28;20217;-78
2020/12/11 14:28:45;;;;;;;3.35;1.40;;;13.20;99.90;;;;;;4992289;28;20208;-79
2020/12/11 14:31:12;;;;;;;2.55;1.02;;;13.30;99.90;;;;;;4987950;28;20292;-78
2020/12/11 14:33:39;;;;;;;4.80;1.20;;;13.30;99.90;;;;;;4993189;28;20213;-78
2020/12/11 14:36:05;;;;;;;3.83;1.70;;;13.40;99.90;;;;;;4993644;28;20213;-78
2020/12/11 14:41:12;;;;;;;3.05;2.13;;;13.40;99.90;;;;;;4986967;28;20201;-79
2020/12/11 14:43:40;;;;;;;9.60;1.70;;;13.40;99.90;;;;;;4990601;28;20270;-79
2020/12/11 14:46:06;;;;;;;5.72;2.05;;;13.50;99.90;;;;;;4982700;28;20262;-77
2020/12/11 14:48:33;;;;;;;3.33;1.33;;;13.40;99.90;;;;;;4992028;28;20263;-79
2020/12/11 14:51:00;;;;;;;7.50;1.70;;;13.40;99.90;;;;;;4992637;28;20284;-78
2020/12/11 14:53:26;;;;;;;6.45;1.52;;;13.40;99.90;;;;;;4986454;28;20213;-78
2020/12/11 14:55:53;;;;;;;5.72;2.67;;;13.40;99.90;;;;;;4991853;28;20209;-80
2020/12/11 14:58:20;;;;;;;7.28;1.85;;;13.40;99.90;;;;;;4992131;28;20299;-77
2020/12/11 15:00:51;;;;;;;2.83;1.40;;;13.50;99.90;;;;;;4991765;28;20264;-78
2020/12/11 15:03:18;;;;;;;4.18;1.67;;;13.40;99.90;;;;;;4990953;28;20248;-77
2020/12/11 15:05:44;;;;;;;5.72;1.58;;;13.40;99.90;;;;;;4990967;28;20691;-77
2020/12/11 15:08:11;;;;;;;6.10;2.03;;;13.40;99.90;;;;;;4991770;28;20251;-77
2020/12/11 15:10:37;;;;;;;9.10;2.55;;;13.30;99.90;;;;;;4993056;28;20236;-78
2020/12/11 15:13:04;;;;;;;9.60;2.13;;;13.30;99.90;;;;;;4992052;28;20209;-78
2020/12/11 15:15:31;;;;;;;7.22;4.18;;;13.30;99.90;;;;;;4990787;28;20283;-79
2020/12/11 15:17:58;;;;;;;9.93;2.45;;;13.00;99.90;;;;;;4986660;28;20689;-78
2020/12/11 15:20:25;;;;;;;10.48;2.70;;;12.90;99.90;;;;;;4992798;28;20263;-78
2020/12/11 15:22:52;;;;;;;9.25;2.40;;;12.90;99.90;;;;;;4991204;28;20251;-79
2020/12/11 15:25:20;;;;;;;16.97;2.53;;;12.90;99.90;;;;;;4989678;28;20679;-78
2020/12/11 15:27:47;;;;;;;9.43;2.83;;;12.90;99.90;;;;;;4991744;28;20240;-78
2020/12/11 15:30:13;;;;;;;9.43;3.00;;;12.70;99.90;;;;;;4989652;28;20232;-77
2020/12/11 15:32:40;;;;;;;6.97;2.42;;;12.80;99.90;;;;;;4990567;28;20264;-77
2020/12/11 15:35:07;;;;;;;7.72;2.45;;;12.80;99.90;;;;;;4993504;28;20267;-77
2020/12/11 15:37:34;;;;;;;12.05;3.08;;;12.80;99.90;;;;;;4981317;28;20635;-77
2020/12/11 15:40:00;;;;;;;9.05;3.00;;;12.90;99.90;;;;;;4988487;28;20291;-78
2020/12/11 15:42:27;;;;;;;9.80;2.03;;;13.00;99.90;;;;;;4990751;28;20264;-74
2020/12/11 15:44:53;;;;;;;8.77;2.40;;;13.00;99.90;;;;;;4987883;28;20280;-74
2020/12/11 15:47:22;;;;;;;7.22;2.25;;;13.10;99.90;;;;;;4990155;28;20212;-75
2020/12/11 15:49:49;;;;;;;7.72;3.10;;;13.00;99.90;;;;;;4989180;28;20714;-75
2020/12/11 15:52:17;;;;;;;5.45;2.42;;;13.00;99.90;;;;;;4991411;28;20683;-75
2020/12/11 15:54:44;;;;;;;13.88;2.88;;;13.10;99.90;;;;;;4991875;28;20209;-75
2020/12/11 15:57:10;;;;;;;14.75;2.55;;;13.10;99.90;;;;;;4991258;28;20208;-75
2020/12/11 15:59:37;;;;;;;11.40;3.45;;;13.00;99.90;;;;;;4991798;28;20213;-76
2020/12/11 16:02:04;;;;;;;14.85;4.00;;;13.00;99.90;;;;;;4991508;28;20248;-75